sensor_id;sensor_type;location;lat;lon;timestamp;P1;durP1;ratioP1;P2;durP2;ratioP2
43160;SDS011;40968;52.342;5.528;2024-01-30T00:01:52;36.78;;;14.85;;
43160;SDS011;40968;52.342;5.528;2024-01-30T00:04:18;44.55;;;16.05;;
43160;SDS011;40968;52.342;5.528;2024-01-30T00:06:46;40.75;;;14.00;;
43160;SDS011;40968;52.342;5.528;2024-01-30T00:09:13;35.13;;;14.50;;
43160;SDS011;40968;52.342;5.528;2024-01-30T00:11:40;42.22;;;15.73;;
43160;SDS011;40968;52.342;5.528;2024-01-30T00:14:06;32.95;;;14.48;;
43160;SDS011;40968;52.342;5.528;2024-01-30T00:16:33;35.58;;;14.95;;
43160;SDS011;40968;52.342;5.528;2024-01-30T00:19:00;43.38;;;15.25;;
43160;SDS011;40968;52.342;5.528;2024-01-30T00:21:27;40.05;;;14.60;;
43160;SDS011;40968;52.342;5.528;2024-01-30T00:23:55;38.45;;;15.15;;
43160;SDS011;40968;52.342;5.528;2024-01-30T00:26:21;36.28;;;15.07;;
43160;SDS011;40968;52.342;5.528;2024-01-30T00:28:48;39.55;;;15.10;;
43160;SDS011;40968;52.342;5.528;2024-01-30T00:31:15;39.20;;;14.35;;
43160;SDS011;40968;52.342;5.528;2024-01-30T00:33:41;40.47;;;15.68;;
43160;SDS011;40968;52.342;5.528;2024-01-30T00:36:08;39.13;;;15.35;;
43160;SDS011;40968;52.342;5.528;2024-01-30T00:38:37;36.50;;;13.95;;
43160;SDS011;40968;52.342;5.528;2024-01-30T00:41:05;35.00;;;14.52;;
43160;SDS011;40968;52.342;5.528;2024-01-30T00:43:32;36.60;;;14.88;;
43160;SDS011;40968;52.342;5.528;2024-01-30T00:45:59;40.30;;;16.02;;
43160;SDS011;40968;52.342;5.528;2024-01-30T00:48:25;42.90;;;14.77;;
43160;SDS011;40968;52.342;5.528;2024-01-30T00:50:52;43.03;;;14.70;;
43160;SDS011;40968;52.342;5.528;2024-01-30T00:53:19;36.45;;;15.15;;
43160;SDS011;40968;52.342;5.528;2024-01-30T00:55:45;34.75;;;14.98;;
43160;SDS011;40968;52.342;5.528;2024-01-30T00:58:13;42.80;;;16.08;;
43160;SDS011;40968;52.342;5.528;2024-01-30T01:00:40;39.45;;;15.60;;
43160;SDS011;40968;52.342;5.528;2024-01-30T01:03:06;43.15;;;15.77;;
43160;SDS011;40968;52.342;5.528;2024-01-30T01:05:33;44.03;;;16.65;;
43160;SDS011;40968;52.342;5.528;2024-01-30T01:08:00;40.55;;;15.30;;
43160;SDS011;40968;52.342;5.528;2024-01-30T01:10:27;39.42;;;14.90;;
43160;SDS011;40968;52.342;5.528;2024-01-30T01:12:53;40.90;;;15.38;;
43160;SDS011;40968;52.342;5.528;2024-01-30T01:15:21;36.97;;;14.82;;
43160;SDS011;40968;52.342;5.528;2024-01-30T01:17:47;40.63;;;14.18;;
43160;SDS011;40968;52.342;5.528;2024-01-30T01:20:14;35.83;;;15.38;;
43160;SDS011;40968;52.342;5.528;2024-01-30T01:22:40;39.13;;;14.82;;
43160;SDS011;40968;52.342;5.528;2024-01-30T01:25:08;45.60;;;15.27;;
43160;SDS011;40968;52.342;5.528;2024-01-30T01:27:35;35.17;;;14.38;;
43160;SDS011;40968;52.342;5.528;2024-01-30T01:30:06;38.80;;;13.50;;
43160;SDS011;40968;52.342;5.528;2024-01-30T01:32:36;32.47;;;13.88;;
43160;SDS011;40968;52.342;5.528;2024-01-30T01:35:03;34.35;;;13.55;;
43160;SDS011;40968;52.342;5.528;2024-01-30T01:37:30;38.00;;;13.77;;
43160;SDS011;40968;52.342;5.528;2024-01-30T01:39:57;38.40;;;14.55;;
43160;SDS011;40968;52.342;5.528;2024-01-30T01:42:23;36.45;;;14.15;;
43160;SDS011;40968;52.342;5.528;2024-01-30T01:44:50;41.55;;;15.38;;
43160;SDS011;40968;52.342;5.528;2024-01-30T01:47:16;37.17;;;13.18;;
43160;SDS011;40968;52.342;5.528;2024-01-30T01:49:45;37.00;;;13.82;;
43160;SDS011;40968;52.342;5.528;2024-01-30T01:52:11;36.78;;;13.13;;
43160;SDS011;40968;52.342;5.528;2024-01-30T01:54:38;31.55;;;14.13;;
43160;SDS011;40968;52.342;5.528;2024-01-30T01:57:04;29.90;;;12.85;;
43160;SDS011;40968;52.342;5.528;2024-01-30T01:59:31;38.03;;;13.48;;
43160;SDS011;40968;52.342;5.528;2024-01-30T02:01:58;36.63;;;14.00;;
43160;SDS011;40968;52.342;5.528;2024-01-30T02:04:27;31.85;;;13.00;;
43160;SDS011;40968;52.342;5.528;2024-01-30T02:06:54;38.42;;;14.10;;
43160;SDS011;40968;52.342;5.528;2024-01-30T02:09:21;39.10;;;13.45;;
43160;SDS011;40968;52.342;5.528;2024-01-30T02:11:48;32.85;;;13.15;;
43160;SDS011;40968;52.342;5.528;2024-01-30T02:14:15;42.95;;;13.98;;
43160;SDS011;40968;52.342;5.528;2024-01-30T02:16:41;46.13;;;13.60;;
43160;SDS011;40968;52.342;5.528;2024-01-30T02:19:08;37.20;;;12.95;;
43160;SDS011;40968;52.342;5.528;2024-01-30T02:21:36;33.00;;;12.50;;
43160;SDS011;40968;52.342;5.528;2024-01-30T02:24:03;32.15;;;12.73;;
43160;SDS011;40968;52.342;5.528;2024-01-30T02:26:30;36.53;;;13.48;;
43160;SDS011;40968;52.342;5.528;2024-01-30T02:28:57;34.78;;;13.05;;
43160;SDS011;40968;52.342;5.528;2024-01-30T02:31:24;28.25;;;11.95;;
43160;SDS011;40968;52.342;5.528;2024-01-30T02:33:51;29.75;;;12.45;;
43160;SDS011;40968;52.342;5.528;2024-01-30T02:36:18;28.60;;;12.02;;
43160;SDS011;40968;52.342;5.528;2024-01-30T02:38:45;30.20;;;13.23;;
43160;SDS011;40968;52.342;5.528;2024-01-30T02:41:12;28.75;;;12.10;;
43160;SDS011;40968;52.342;5.528;2024-01-30T02:43:39;34.97;;;12.63;;
43160;SDS011;40968;52.342;5.528;2024-01-30T02:46:06;32.65;;;13.68;;
43160;SDS011;40968;52.342;5.528;2024-01-30T02:48:32;34.10;;;12.20;;
43160;SDS011;40968;52.342;5.528;2024-01-30T02:50:59;31.48;;;12.20;;
43160;SDS011;40968;52.342;5.528;2024-01-30T02:53:25;29.27;;;11.68;;
43160;SDS011;40968;52.342;5.528;2024-01-30T02:55:53;30.77;;;11.90;;
43160;SDS011;40968;52.342;5.528;2024-01-30T02:58:20;31.52;;;12.63;;
43160;SDS011;40968;52.342;5.528;2024-01-30T03:00:46;34.95;;;12.73;;
43160;SDS011;40968;52.342;5.528;2024-01-30T03:03:13;31.42;;;11.20;;
43160;SDS011;40968;52.342;5.528;2024-01-30T03:05:39;32.13;;;12.35;;
43160;SDS011;40968;52.342;5.528;2024-01-30T03:08:06;27.98;;;11.80;;
43160;SDS011;40968;52.342;5.528;2024-01-30T03:10:32;30.83;;;10.93;;
43160;SDS011;40968;52.342;5.528;2024-01-30T03:13:00;31.42;;;11.70;;
43160;SDS011;40968;52.342;5.528;2024-01-30T03:15:27;32.03;;;11.57;;
43160;SDS011;40968;52.342;5.528;2024-01-30T03:17:53;27.90;;;10.98;;
43160;SDS011;40968;52.342;5.528;2024-01-30T03:20:20;30.35;;;11.77;;
43160;SDS011;40968;52.342;5.528;2024-01-30T03:22:47;39.47;;;12.70;;
43160;SDS011;40968;52.342;5.528;2024-01-30T03:25:13;32.45;;;12.18;;
43160;SDS011;40968;52.342;5.528;2024-01-30T03:27:40;35.15;;;13.10;;
43160;SDS011;40968;52.342;5.528;2024-01-30T03:30:09;34.53;;;12.00;;
43160;SDS011;40968;52.342;5.528;2024-01-30T03:32:35;33.17;;;13.27;;
43160;SDS011;40968;52.342;5.528;2024-01-30T03:35:02;32.28;;;12.07;;
43160;SDS011;40968;52.342;5.528;2024-01-30T03:37:29;40.60;;;13.20;;
43160;SDS011;40968;52.342;5.528;2024-01-30T03:39:55;48.17;;;14.68;;
43160;SDS011;40968;52.342;5.528;2024-01-30T03:42:22;36.53;;;14.43;;
43160;SDS011;40968;52.342;5.528;2024-01-30T03:44:48;38.35;;;15.02;;
43160;SDS011;40968;52.342;5.528;2024-01-30T03:47:18;41.17;;;14.23;;
43160;SDS011;40968;52.342;5.528;2024-01-30T03:49:45;38.58;;;14.10;;
43160;SDS011;40968;52.342;5.528;2024-01-30T03:52:11;47.03;;;14.27;;
43160;SDS011;40968;52.342;5.528;2024-01-30T03:54:38;36.88;;;13.88;;
43160;SDS011;40968;52.342;5.528;2024-01-30T03:57:05;34.33;;;13.57;;
43160;SDS011;40968;52.342;5.528;2024-01-30T03:59:31;36.58;;;13.32;;
43160;SDS011;40968;52.342;5.528;2024-01-30T04:01:59;34.15;;;12.93;;
43160;SDS011;40968;52.342;5.528;2024-01-30T04:04:27;34.72;;;12.32;;
43160;SDS011;40968;52.342;5.528;2024-01-30T04:06:54;32.25;;;11.80;;
43160;SDS011;40968;52.342;5.528;2024-01-30T04:09:20;27.98;;;12.25;;
43160;SDS011;40968;52.342;5.528;2024-01-30T04:11:47;36.10;;;12.38;;
43160;SDS011;40968;52.342;5.528;2024-01-30T04:14:14;30.40;;;11.57;;
43160;SDS011;40968;52.342;5.528;2024-01-30T04:16:40;32.03;;;13.15;;
43160;SDS011;40968;52.342;5.528;2024-01-30T04:19:07;26.20;;;10.85;;
43160;SDS011;40968;52.342;5.528;2024-01-30T04:21:34;33.53;;;12.05;;
43160;SDS011;40968;52.342;5.528;2024-01-30T04:24:01;27.88;;;10.93;;
43160;SDS011;40968;52.342;5.528;2024-01-30T04:26:27;29.73;;;10.40;;
43160;SDS011;40968;52.342;5.528;2024-01-30T04:28:54;29.80;;;11.20;;
43160;SDS011;40968;52.342;5.528;2024-01-30T04:31:21;31.45;;;11.68;;
43160;SDS011;40968;52.342;5.528;2024-01-30T04:33:47;36.55;;;11.75;;
43160;SDS011;40968;52.342;5.528;2024-01-30T04:36:14;28.17;;;10.98;;
43160;SDS011;40968;52.342;5.528;2024-01-30T04:38:42;36.28;;;10.75;;
43160;SDS011;40968;52.342;5.528;2024-01-30T04:41:08;38.28;;;10.35;;
43160;SDS011;40968;52.342;5.528;2024-01-30T04:43:35;27.42;;;9.60;;
43160;SDS011;40968;52.342;5.528;2024-01-30T04:46:02;22.52;;;10.60;;
43160;SDS011;40968;52.342;5.528;2024-01-30T04:48:28;29.58;;;10.40;;
43160;SDS011;40968;52.342;5.528;2024-01-30T04:50:55;29.25;;;11.20;;
43160;SDS011;40968;52.342;5.528;2024-01-30T04:53:21;24.13;;;11.48;;
43160;SDS011;40968;52.342;5.528;2024-01-30T04:55:49;26.55;;;10.40;;
43160;SDS011;40968;52.342;5.528;2024-01-30T04:58:16;25.23;;;9.98;;
43160;SDS011;40968;52.342;5.528;2024-01-30T05:00:42;26.17;;;10.50;;
43160;SDS011;40968;52.342;5.528;2024-01-30T05:03:09;33.78;;;10.85;;
43160;SDS011;40968;52.342;5.528;2024-01-30T05:05:35;33.10;;;11.10;;
43160;SDS011;40968;52.342;5.528;2024-01-30T05:08:02;28.23;;;10.40;;
43160;SDS011;40968;52.342;5.528;2024-01-30T05:10:29;30.90;;;9.77;;
43160;SDS011;40968;52.342;5.528;2024-01-30T05:12:57;27.33;;;9.98;;
43160;SDS011;40968;52.342;5.528;2024-01-30T05:15:23;28.08;;;10.40;;
43160;SDS011;40968;52.342;5.528;2024-01-30T05:17:50;27.27;;;9.38;;
43160;SDS011;40968;52.342;5.528;2024-01-30T05:20:17;23.88;;;9.85;;
43160;SDS011;40968;52.342;5.528;2024-01-30T05:22:42;27.25;;;9.35;;
43160;SDS011;40968;52.342;5.528;2024-01-30T05:25:10;27.38;;;10.40;;
43160;SDS011;40968;52.342;5.528;2024-01-30T05:27:36;29.40;;;10.57;;
43160;SDS011;40968;52.342;5.528;2024-01-30T05:30:05;28.02;;;10.30;;
43160;SDS011;40968;52.342;5.528;2024-01-30T05:32:32;27.65;;;10.55;;
43160;SDS011;40968;52.342;5.528;2024-01-30T05:34:59;24.58;;;9.98;;
43160;SDS011;40968;52.342;5.528;2024-01-30T05:37:26;33.83;;;10.10;;
43160;SDS011;40968;52.342;5.528;2024-01-30T05:39:52;26.63;;;9.77;;
43160;SDS011;40968;52.342;5.528;2024-01-30T05:42:19;27.98;;;10.23;;
43160;SDS011;40968;52.342;5.528;2024-01-30T05:44:45;25.92;;;9.57;;
43160;SDS011;40968;52.342;5.528;2024-01-30T05:47:13;26.75;;;9.85;;
43160;SDS011;40968;52.342;5.528;2024-01-30T05:49:40;24.63;;;9.52;;
43160;SDS011;40968;52.342;5.528;2024-01-30T05:52:07;24.52;;;9.40;;
43160;SDS011;40968;52.342;5.528;2024-01-30T05:54:33;26.98;;;9.10;;
43160;SDS011;40968;52.342;5.528;2024-01-30T05:57:00;23.33;;;9.75;;
43160;SDS011;40968;52.342;5.528;2024-01-30T05:59:26;31.63;;;10.30;;
43160;SDS011;40968;52.342;5.528;2024-01-30T06:01:53;30.20;;;9.85;;
43160;SDS011;40968;52.342;5.528;2024-01-30T06:04:21;25.40;;;10.40;;
43160;SDS011;40968;52.342;5.528;2024-01-30T06:06:47;28.73;;;10.68;;
43160;SDS011;40968;52.342;5.528;2024-01-30T06:09:14;25.17;;;9.77;;
43160;SDS011;40968;52.342;5.528;2024-01-30T06:11:40;22.48;;;9.05;;
43160;SDS011;40968;52.342;5.528;2024-01-30T06:14:07;27.88;;;10.23;;
43160;SDS011;40968;52.342;5.528;2024-01-30T06:16:33;39.75;;;10.05;;
43160;SDS011;40968;52.342;5.528;2024-01-30T06:19:00;29.30;;;9.77;;
43160;SDS011;40968;52.342;5.528;2024-01-30T06:21:28;29.15;;;10.30;;
43160;SDS011;40968;52.342;5.528;2024-01-30T06:23:55;35.55;;;10.52;;
43160;SDS011;40968;52.342;5.528;2024-01-30T06:26:22;26.90;;;10.68;;
43160;SDS011;40968;52.342;5.528;2024-01-30T06:28:48;29.08;;;10.88;;
43160;SDS011;40968;52.342;5.528;2024-01-30T06:31:15;25.17;;;10.40;;
43160;SDS011;40968;52.342;5.528;2024-01-30T06:33:41;25.13;;;10.30;;
43160;SDS011;40968;52.342;5.528;2024-01-30T06:36:08;22.60;;;9.73;;
43160;SDS011;40968;52.342;5.528;2024-01-30T06:38:36;28.55;;;11.00;;
43160;SDS011;40968;52.342;5.528;2024-01-30T06:41:02;32.72;;;10.90;;
43160;SDS011;40968;52.342;5.528;2024-01-30T06:43:29;26.80;;;10.63;;
43160;SDS011;40968;52.342;5.528;2024-01-30T06:45:56;22.90;;;10.02;;
43160;SDS011;40968;52.342;5.528;2024-01-30T06:48:22;35.63;;;10.35;;
43160;SDS011;40968;52.342;5.528;2024-01-30T06:50:49;34.85;;;11.45;;
43160;SDS011;40968;52.342;5.528;2024-01-30T06:53:16;28.35;;;9.77;;
43160;SDS011;40968;52.342;5.528;2024-01-30T06:55:44;27.70;;;9.95;;
43160;SDS011;40968;52.342;5.528;2024-01-30T06:58:11;30.77;;;10.95;;
43160;SDS011;40968;52.342;5.528;2024-01-30T07:00:37;27.85;;;10.65;;
43160;SDS011;40968;52.342;5.528;2024-01-30T07:03:04;26.38;;;9.57;;
43160;SDS011;40968;52.342;5.528;2024-01-30T07:05:31;32.25;;;10.98;;
43160;SDS011;40968;52.342;5.528;2024-01-30T07:07:58;23.05;;;9.65;;
43160;SDS011;40968;52.342;5.528;2024-01-30T07:10:24;29.48;;;9.90;;
43160;SDS011;40968;52.342;5.528;2024-01-30T07:12:52;26.55;;;9.90;;
43160;SDS011;40968;52.342;5.528;2024-01-30T07:15:19;25.60;;;10.60;;
43160;SDS011;40968;52.342;5.528;2024-01-30T07:17:45;29.08;;;10.00;;
43160;SDS011;40968;52.342;5.528;2024-01-30T07:20:12;26.83;;;9.70;;
43160;SDS011;40968;52.342;5.528;2024-01-30T07:22:39;30.58;;;10.05;;
43160;SDS011;40968;52.342;5.528;2024-01-30T07:25:06;26.38;;;9.57;;
43160;SDS011;40968;52.342;5.528;2024-01-30T07:27:33;32.10;;;9.82;;
43160;SDS011;40968;52.342;5.528;2024-01-30T07:30:01;23.00;;;9.38;;
43160;SDS011;40968;52.342;5.528;2024-01-30T07:32:27;28.92;;;9.82;;
43160;SDS011;40968;52.342;5.528;2024-01-30T07:34:54;27.60;;;9.65;;
43160;SDS011;40968;52.342;5.528;2024-01-30T07:37:21;24.25;;;9.20;;
43160;SDS011;40968;52.342;5.528;2024-01-30T07:39:47;32.75;;;9.43;;
43160;SDS011;40968;52.342;5.528;2024-01-30T07:42:14;28.55;;;9.90;;
43160;SDS011;40968;52.342;5.528;2024-01-30T07:44:41;31.08;;;10.27;;
43160;SDS011;40968;52.342;5.528;2024-01-30T07:47:09;20.48;;;9.43;;
43160;SDS011;40968;52.342;5.528;2024-01-30T07:49:35;28.23;;;8.88;;
43160;SDS011;40968;52.342;5.528;2024-01-30T07:52:04;24.92;;;9.95;;
43160;SDS011;40968;52.342;5.528;2024-01-30T07:54:32;23.75;;;9.15;;
43160;SDS011;40968;52.342;5.528;2024-01-30T07:56:59;22.25;;;8.60;;
43160;SDS011;40968;52.342;5.528;2024-01-30T07:59:26;31.42;;;9.77;;
43160;SDS011;40968;52.342;5.528;2024-01-30T08:02:03;29.17;;;9.88;;
43160;SDS011;40968;52.342;5.528;2024-01-30T08:04:31;22.73;;;9.43;;
43160;SDS011;40968;52.342;5.528;2024-01-30T08:06:58;32.88;;;8.85;;
43160;SDS011;40968;52.342;5.528;2024-01-30T08:09:24;25.63;;;9.60;;
43160;SDS011;40968;52.342;5.528;2024-01-30T08:11:51;24.65;;;9.25;;
43160;SDS011;40968;52.342;5.528;2024-01-30T08:14:18;25.88;;;9.43;;
43160;SDS011;40968;52.342;5.528;2024-01-30T08:16:44;25.80;;;10.13;;
43160;SDS011;40968;52.342;5.528;2024-01-30T08:19:11;28.75;;;10.32;;
43160;SDS011;40968;52.342;5.528;2024-01-30T08:21:39;25.58;;;9.40;;
43160;SDS011;40968;52.342;5.528;2024-01-30T08:24:06;25.10;;;8.70;;
43160;SDS011;40968;52.342;5.528;2024-01-30T08:26:34;24.75;;;9.65;;
43160;SDS011;40968;52.342;5.528;2024-01-30T08:29:00;26.02;;;10.07;;
43160;SDS011;40968;52.342;5.528;2024-01-30T08:31:27;29.08;;;10.35;;
43160;SDS011;40968;52.342;5.528;2024-01-30T08:33:54;25.88;;;9.93;;
43160;SDS011;40968;52.342;5.528;2024-01-30T08:36:21;25.55;;;10.07;;
43160;SDS011;40968;52.342;5.528;2024-01-30T08:38:49;27.27;;;9.38;;
43160;SDS011;40968;52.342;5.528;2024-01-30T08:41:15;23.98;;;8.55;;
43160;SDS011;40968;52.342;5.528;2024-01-30T08:43:42;26.92;;;8.98;;
43160;SDS011;40968;52.342;5.528;2024-01-30T08:46:10;22.27;;;8.90;;
43160;SDS011;40968;52.342;5.528;2024-01-30T08:48:37;25.52;;;9.45;;
43160;SDS011;40968;52.342;5.528;2024-01-30T08:51:03;25.00;;;9.48;;
43160;SDS011;40968;52.342;5.528;2024-01-30T08:53:33;28.60;;;10.23;;
43160;SDS011;40968;52.342;5.528;2024-01-30T08:56:01;36.95;;;9.90;;
43160;SDS011;40968;52.342;5.528;2024-01-30T08:58:28;27.70;;;9.13;;
43160;SDS011;40968;52.342;5.528;2024-01-30T09:00:54;25.52;;;9.45;;
43160;SDS011;40968;52.342;5.528;2024-01-30T09:03:21;29.92;;;10.50;;
43160;SDS011;40968;52.342;5.528;2024-01-30T09:05:48;32.53;;;9.50;;
43160;SDS011;40968;52.342;5.528;2024-01-30T09:08:14;25.05;;;9.85;;
43160;SDS011;40968;52.342;5.528;2024-01-30T09:10:41;30.58;;;9.70;;
43160;SDS011;40968;52.342;5.528;2024-01-30T09:13:09;29.40;;;9.55;;
43160;SDS011;40968;52.342;5.528;2024-01-30T09:15:35;32.63;;;10.13;;
43160;SDS011;40968;52.342;5.528;2024-01-30T09:18:02;26.30;;;9.15;;
43160;SDS011;40968;52.342;5.528;2024-01-30T09:20:29;25.02;;;9.35;;
43160;SDS011;40968;52.342;5.528;2024-01-30T09:22:55;37.75;;;10.05;;
43160;SDS011;40968;52.342;5.528;2024-01-30T09:25:22;26.13;;;8.90;;
43160;SDS011;40968;52.342;5.528;2024-01-30T09:27:48;34.13;;;9.63;;
43160;SDS011;40968;52.342;5.528;2024-01-30T09:30:17;30.48;;;9.50;;
43160;SDS011;40968;52.342;5.528;2024-01-30T09:32:43;34.03;;;10.02;;
43160;SDS011;40968;52.342;5.528;2024-01-30T09:35:10;31.48;;;9.95;;
43160;SDS011;40968;52.342;5.528;2024-01-30T09:37:36;26.23;;;10.20;;
43160;SDS011;40968;52.342;5.528;2024-01-30T09:40:03;30.85;;;10.20;;
43160;SDS011;40968;52.342;5.528;2024-01-30T09:42:33;38.17;;;10.52;;
43160;SDS011;40968;52.342;5.528;2024-01-30T09:45:01;41.90;;;11.17;;
43160;SDS011;40968;52.342;5.528;2024-01-30T09:47:29;30.17;;;9.88;;
43160;SDS011;40968;52.342;5.528;2024-01-30T09:49:57;35.38;;;10.25;;
43160;SDS011;40968;52.342;5.528;2024-01-30T09:52:24;30.85;;;9.68;;
43160;SDS011;40968;52.342;5.528;2024-01-30T09:54:51;31.33;;;10.32;;
43160;SDS011;40968;52.342;5.528;2024-01-30T09:57:19;22.30;;;8.80;;
43160;SDS011;40968;52.342;5.528;2024-01-30T09:59:46;29.52;;;9.30;;
43160;SDS011;40968;52.342;5.528;2024-01-30T10:02:12;29.58;;;9.20;;
43160;SDS011;40968;52.342;5.528;2024-01-30T10:04:40;28.80;;;9.35;;
43160;SDS011;40968;52.342;5.528;2024-01-30T10:07:07;37.92;;;9.70;;
43160;SDS011;40968;52.342;5.528;2024-01-30T10:09:36;35.83;;;9.00;;
43160;SDS011;40968;52.342;5.528;2024-01-30T10:12:03;31.08;;;10.18;;
43160;SDS011;40968;52.342;5.528;2024-01-30T10:14:32;28.27;;;10.10;;
43160;SDS011;40968;52.342;5.528;2024-01-30T10:17:01;30.77;;;10.82;;
43160;SDS011;40968;52.342;5.528;2024-01-30T10:19:28;27.17;;;9.10;;
43160;SDS011;40968;52.342;5.528;2024-01-30T10:21:56;26.95;;;9.55;;
43160;SDS011;40968;52.342;5.528;2024-01-30T10:24:23;25.30;;;9.18;;
43160;SDS011;40968;52.342;5.528;2024-01-30T10:26:50;36.42;;;9.75;;
43160;SDS011;40968;52.342;5.528;2024-01-30T10:29:17;30.08;;;8.88;;
43160;SDS011;40968;52.342;5.528;2024-01-30T10:31:43;22.30;;;9.25;;
43160;SDS011;40968;52.342;5.528;2024-01-30T10:34:11;23.67;;;9.10;;
43160;SDS011;40968;52.342;5.528;2024-01-30T10:36:39;22.92;;;9.18;;
43160;SDS011;40968;52.342;5.528;2024-01-30T10:39:08;26.77;;;9.35;;
43160;SDS011;40968;52.342;5.528;2024-01-30T10:41:36;27.60;;;9.75;;
43160;SDS011;40968;52.342;5.528;2024-01-30T10:44:09;33.03;;;10.32;;
43160;SDS011;40968;52.342;5.528;2024-01-30T10:46:37;29.30;;;8.90;;
43160;SDS011;40968;52.342;5.528;2024-01-30T10:49:04;31.73;;;9.07;;
43160;SDS011;40968;52.342;5.528;2024-01-30T10:51:32;41.42;;;8.85;;
43160;SDS011;40968;52.342;5.528;2024-01-30T10:53:58;27.08;;;9.32;;
43160;SDS011;40968;52.342;5.528;2024-01-30T10:56:28;32.35;;;9.80;;
43160;SDS011;40968;52.342;5.528;2024-01-30T10:58:58;28.65;;;9.52;;
43160;SDS011;40968;52.342;5.528;2024-01-30T11:01:25;30.02;;;10.07;;
43160;SDS011;40968;52.342;5.528;2024-01-30T11:03:53;22.80;;;9.35;;
43160;SDS011;40968;52.342;5.528;2024-01-30T11:06:22;30.70;;;10.25;;
43160;SDS011;40968;52.342;5.528;2024-01-30T11:08:59;27.50;;;11.52;;
43160;SDS011;40968;52.342;5.528;2024-01-30T11:11:28;27.48;;;9.63;;
43160;SDS011;40968;52.342;5.528;2024-01-30T11:13:55;28.13;;;9.25;;
43160;SDS011;40968;52.342;5.528;2024-01-30T11:16:21;27.95;;;9.52;;
43160;SDS011;40968;52.342;5.528;2024-01-30T11:18:49;25.80;;;8.75;;
43160;SDS011;40968;52.342;5.528;2024-01-30T11:21:17;24.70;;;8.57;;
43160;SDS011;40968;52.342;5.528;2024-01-30T11:23:43;26.65;;;8.63;;
43160;SDS011;40968;52.342;5.528;2024-01-30T11:26:10;22.23;;;7.43;;
43160;SDS011;40968;52.342;5.528;2024-01-30T11:28:38;23.33;;;7.55;;
43160;SDS011;40968;52.342;5.528;2024-01-30T11:31:05;26.48;;;7.18;;
43160;SDS011;40968;52.342;5.528;2024-01-30T11:33:33;18.23;;;6.82;;
43160;SDS011;40968;52.342;5.528;2024-01-30T11:36:00;19.80;;;6.28;;
43160;SDS011;40968;52.342;5.528;2024-01-30T11:38:28;26.45;;;6.47;;
43160;SDS011;40968;52.342;5.528;2024-01-30T11:40:55;17.30;;;5.45;;
43160;SDS011;40968;52.342;5.528;2024-01-30T11:43:22;19.35;;;5.03;;
43160;SDS011;40968;52.342;5.528;2024-01-30T11:45:50;10.13;;;4.28;;
43160;SDS011;40968;52.342;5.528;2024-01-30T11:48:17;11.73;;;3.80;;
43160;SDS011;40968;52.342;5.528;2024-01-30T11:50:44;12.98;;;3.67;;
43160;SDS011;40968;52.342;5.528;2024-01-30T11:53:11;14.27;;;4.63;;
43160;SDS011;40968;52.342;5.528;2024-01-30T11:55:37;11.10;;;3.42;;
43160;SDS011;40968;52.342;5.528;2024-01-30T11:58:04;17.95;;;4.35;;
43160;SDS011;40968;52.342;5.528;2024-01-30T12:00:31;7.88;;;3.38;;
43160;SDS011;40968;52.342;5.528;2024-01-30T12:02:59;8.95;;;3.40;;
43160;SDS011;40968;52.342;5.528;2024-01-30T12:05:27;10.20;;;3.55;;
43160;SDS011;40968;52.342;5.528;2024-01-30T12:07:53;12.52;;;3.10;;
43160;SDS011;40968;52.342;5.528;2024-01-30T12:10:23;12.30;;;3.55;;
43160;SDS011;40968;52.342;5.528;2024-01-30T12:12:50;8.43;;;3.17;;
43160;SDS011;40968;52.342;5.528;2024-01-30T12:15:18;7.82;;;3.00;;
43160;SDS011;40968;52.342;5.528;2024-01-30T12:17:47;7.07;;;3.00;;
43160;SDS011;40968;52.342;5.528;2024-01-30T12:20:15;9.52;;;3.25;;
43160;SDS011;40968;52.342;5.528;2024-01-30T12:22:44;7.95;;;3.13;;
43160;SDS011;40968;52.342;5.528;2024-01-30T12:25:13;15.10;;;3.15;;
43160;SDS011;40968;52.342;5.528;2024-01-30T12:27:42;7.15;;;2.85;;
43160;SDS011;40968;52.342;5.528;2024-01-30T12:30:10;6.97;;;2.60;;
43160;SDS011;40968;52.342;5.528;2024-01-30T12:32:39;6.40;;;2.63;;
43160;SDS011;40968;52.342;5.528;2024-01-30T12:35:06;9.10;;;3.40;;
43160;SDS011;40968;52.342;5.528;2024-01-30T12:37:35;9.38;;;2.90;;
43160;SDS011;40968;52.342;5.528;2024-01-30T12:40:01;8.70;;;2.58;;
43160;SDS011;40968;52.342;5.528;2024-01-30T12:42:29;9.23;;;2.70;;
43160;SDS011;40968;52.342;5.528;2024-01-30T12:44:56;5.30;;;2.30;;
43160;SDS011;40968;52.342;5.528;2024-01-30T12:47:23;7.68;;;2.92;;
43160;SDS011;40968;52.342;5.528;2024-01-30T12:49:50;7.85;;;2.28;;
43160;SDS011;40968;52.342;5.528;2024-01-30T12:52:19;5.50;;;1.90;;
43160;SDS011;40968;52.342;5.528;2024-01-30T12:54:47;6.38;;;1.95;;
43160;SDS011;40968;52.342;5.528;2024-01-30T12:57:14;6.28;;;1.75;;
43160;SDS011;40968;52.342;5.528;2024-01-30T12:59:41;5.78;;;1.70;;
43160;SDS011;40968;52.342;5.528;2024-01-30T13:02:08;5.22;;;1.70;;
43160;SDS011;40968;52.342;5.528;2024-01-30T13:04:34;5.28;;;2.13;;
43160;SDS011;40968;52.342;5.528;2024-01-30T13:07:01;9.45;;;1.90;;
43160;SDS011;40968;52.342;5.528;2024-01-30T13:09:29;5.03;;;1.73;;
43160;SDS011;40968;52.342;5.528;2024-01-30T13:11:57;7.07;;;2.20;;
43160;SDS011;40968;52.342;5.528;2024-01-30T13:14:24;5.78;;;1.85;;
43160;SDS011;40968;52.342;5.528;2024-01-30T13:16:51;7.22;;;2.38;;
43160;SDS011;40968;52.342;5.528;2024-01-30T13:19:18;5.03;;;2.15;;
43160;SDS011;40968;52.342;5.528;2024-01-30T13:21:45;9.60;;;2.22;;
43160;SDS011;40968;52.342;5.528;2024-01-30T13:24:12;7.13;;;2.22;;
43160;SDS011;40968;52.342;5.528;2024-01-30T13:26:39;9.77;;;2.60;;
43160;SDS011;40968;52.342;5.528;2024-01-30T13:29:07;6.90;;;2.42;;
43160;SDS011;40968;52.342;5.528;2024-01-30T13:31:34;8.00;;;2.30;;
43160;SDS011;40968;52.342;5.528;2024-01-30T13:34:00;9.07;;;2.13;;
43160;SDS011;40968;52.342;5.528;2024-01-30T13:36:27;5.68;;;2.65;;
43160;SDS011;40968;52.342;5.528;2024-01-30T13:38:54;10.10;;;2.63;;
43160;SDS011;40968;52.342;5.528;2024-01-30T13:41:20;13.68;;;2.65;;
43160;SDS011;40968;52.342;5.528;2024-01-30T13:43:47;7.50;;;2.50;;
43160;SDS011;40968;52.342;5.528;2024-01-30T13:46:15;7.93;;;2.75;;
43160;SDS011;40968;52.342;5.528;2024-01-30T13:48:42;7.30;;;2.67;;
43160;SDS011;40968;52.342;5.528;2024-01-30T13:51:09;7.88;;;2.78;;
43160;SDS011;40968;52.342;5.528;2024-01-30T13:53:36;5.38;;;2.50;;
43160;SDS011;40968;52.342;5.528;2024-01-30T13:56:02;8.85;;;3.03;;
43160;SDS011;40968;52.342;5.528;2024-01-30T13:58:29;8.00;;;3.30;;
43160;SDS011;40968;52.342;5.528;2024-01-30T14:00:58;10.68;;;3.55;;
43160;SDS011;40968;52.342;5.528;2024-01-30T14:03:26;8.10;;;3.13;;
43160;SDS011;40968;52.342;5.528;2024-01-30T14:05:53;11.65;;;3.05;;
43160;SDS011;40968;52.342;5.528;2024-01-30T14:08:19;8.38;;;3.35;;
43160;SDS011;40968;52.342;5.528;2024-01-30T14:10:49;8.68;;;3.78;;
43160;SDS011;40968;52.342;5.528;2024-01-30T14:13:15;6.70;;;3.40;;
43160;SDS011;40968;52.342;5.528;2024-01-30T14:15:42;13.93;;;3.90;;
43160;SDS011;40968;52.342;5.528;2024-01-30T14:18:09;15.40;;;3.50;;
43160;SDS011;40968;52.342;5.528;2024-01-30T14:20:37;13.18;;;3.38;;
43160;SDS011;40968;52.342;5.528;2024-01-30T14:23:04;5.93;;;2.97;;
43160;SDS011;40968;52.342;5.528;2024-01-30T14:25:30;5.15;;;2.63;;
43160;SDS011;40968;52.342;5.528;2024-01-30T14:27:57;5.90;;;2.58;;
43160;SDS011;40968;52.342;5.528;2024-01-30T14:30:23;6.43;;;3.47;;